createdAt,value
2022-10-08T00:00:55.493Z,14.58
2022-10-08T00:03:26.752Z,14.58
2022-10-08T00:05:57.149Z,14.63
2022-10-08T00:08:24.132Z,14.61
2022-10-08T00:11:00.262Z,14.59
2022-10-08T00:13:40.571Z,14.60
2022-10-08T00:16:09.725Z,14.63
2022-10-08T00:18:37.609Z,14.70
2022-10-08T00:21:14.386Z,14.71
2022-10-08T00:23:41.274Z,14.67
2022-10-08T00:26:07.827Z,14.65
2022-10-08T00:28:35.232Z,14.65
2022-10-08T00:31:10.970Z,14.62
2022-10-08T00:33:59.229Z,14.61
2022-10-08T00:36:47.551Z,14.66
2022-10-08T00:39:33.907Z,14.61
2022-10-08T00:42:21.421Z,14.66
2022-10-08T00:45:12.443Z,14.66
2022-10-08T00:47:58.875Z,14.63
2022-10-08T00:50:35.748Z,14.67
2022-10-08T00:53:06.116Z,14.64
2022-10-08T00:55:33.752Z,14.67
2022-10-08T00:58:07.023Z,14.71
2022-10-08T01:00:33.703Z,14.70
2022-10-08T01:03:01.242Z,14.69
2022-10-08T01:05:44.080Z,14.64
2022-10-08T01:08:37.153Z,14.69
2022-10-08T01:11:28.349Z,14.69
2022-10-08T01:14:22.892Z,14.68
2022-10-08T01:17:23.618Z,14.70
2022-10-08T01:20:14.639Z,14.70
2022-10-08T01:23:18.633Z,14.74
2022-10-08T01:25:52.262Z,14.68
2022-10-08T01:28:21.959Z,14.64
2022-10-08T01:30:57.332Z,14.66
2022-10-08T01:33:34.781Z,14.58
2022-10-08T01:36:04.087Z,14.62
2022-10-08T01:38:33.797Z,14.63
2022-10-08T01:41:06.039Z,14.59
2022-10-08T01:43:36.114Z,14.54
2022-10-08T01:46:19.548Z,14.48
2022-10-08T01:48:49.623Z,14.55
2022-10-08T01:51:34.297Z,14.42
2022-10-08T01:54:07.198Z,14.51
2022-10-08T01:56:36.442Z,14.50
2022-10-08T01:59:11.895Z,14.51
2022-10-08T02:01:59.211Z,14.54
2022-10-08T02:04:35.133Z,14.53
2022-10-08T02:07:09.408Z,14.53
2022-10-08T02:09:43.584Z,14.52
2022-10-08T02:12:11.518Z,14.53
2022-10-08T02:14:43.383Z,14.48
2022-10-08T02:17:36.683Z,14.46
2022-10-08T02:20:42.019Z,14.46
2022-10-08T02:23:17.095Z,14.47
2022-10-08T02:25:46.594Z,14.52
2022-10-08T02:28:26.284Z,14.49
2022-10-08T02:31:03.514Z,14.47
2022-10-08T02:33:38.224Z,14.39
2022-10-08T02:36:08.533Z,14.43
2022-10-08T02:38:40.462Z,14.41
2022-10-08T02:41:10.407Z,14.42
2022-10-08T02:43:41.879Z,14.45
2022-10-08T02:46:15.900Z,14.38
2022-10-08T02:48:48.318Z,14.37
2022-10-08T02:51:18.788Z,14.36
2022-10-08T02:53:45.772Z,14.36
2022-10-08T02:56:25.653Z,14.33
2022-10-08T02:58:52.554Z,14.42
2022-10-08T03:01:30.503Z,14.37
2022-10-08T03:04:18.191Z,14.40
2022-10-08T03:06:46.067Z,14.34
2022-10-08T03:09:14.927Z,14.37
2022-10-08T03:11:42.538Z,14.35
2022-10-08T03:14:12.391Z,14.32
2022-10-08T03:16:44.850Z,14.34
2022-10-08T03:19:14.094Z,14.33
2022-10-08T03:21:43.018Z,14.34
2022-10-08T03:24:11.128Z,14.34
2022-10-08T03:26:38.757Z,14.35
2022-10-08T03:29:06.058Z,14.35
2022-10-08T03:31:33.281Z,14.31
2022-10-08T03:33:59.799Z,14.34
2022-10-08T03:36:26.614Z,14.36
2022-10-08T03:38:53.554Z,14.28
2022-10-08T03:41:20.451Z,14.33
2022-10-08T03:43:47.172Z,14.26
2022-10-08T03:46:15.407Z,14.28
2022-10-08T03:48:42.773Z,14.31
2022-10-08T03:51:14.322Z,14.27
2022-10-08T03:53:42.538Z,14.20
2022-10-08T03:56:16.656Z,14.15
2022-10-08T03:58:43.635Z,14.11
2022-10-08T04:01:16.369Z,14.05
2022-10-08T04:03:45.155Z,14.04
2022-10-08T04:06:12.342Z,14.01
2022-10-08T04:08:39.628Z,13.88
2022-10-08T04:11:09.201Z,13.86
2022-10-08T04:13:36.708Z,13.78
2022-10-08T04:16:19.703Z,13.73
2022-10-08T04:18:47.119Z,13.66
2022-10-08T04:21:16.951Z,13.60
2022-10-08T04:23:44.232Z,13.52
2022-10-08T04:26:12.666Z,13.55
2022-10-08T04:28:41.223Z,13.48
2022-10-08T04:31:11.878Z,13.50
2022-10-08T04:33:39.155Z,13.42
2022-10-08T04:36:14.089Z,13.45
2022-10-08T04:38:43.032Z,13.38
2022-10-08T04:41:17.231Z,13.35
2022-10-08T04:43:45.429Z,13.17
2022-10-08T04:46:14.584Z,13.18
2022-10-08T04:48:47.537Z,13.14
2022-10-08T04:51:14.331Z,13.09
2022-10-08T04:53:41.170Z,13.04
2022-10-08T04:56:29.627Z,12.97
2022-10-08T04:58:58.924Z,12.98
2022-10-08T05:01:27.302Z,12.92
2022-10-08T05:03:55.905Z,12.88
2022-10-08T05:06:25.194Z,12.85
2022-10-08T05:08:52.097Z,12.82
2022-10-08T05:11:19.756Z,12.77
2022-10-08T05:13:51.613Z,12.75
2022-10-08T05:16:18.646Z,12.72
2022-10-08T05:18:46.030Z,12.68
2022-10-08T05:21:16.040Z,12.67
2022-10-08T05:23:43.435Z,12.65
2022-10-08T05:26:35.963Z,12.64
2022-10-08T05:29:10.670Z,12.53
2022-10-08T05:31:38.005Z,12.51
2022-10-08T05:34:05.228Z,12.48
2022-10-08T05:36:33.352Z,12.31
2022-10-08T05:39:01.905Z,12.30
2022-10-08T05:41:34.049Z,12.24
2022-10-08T05:44:04.271Z,12.16
2022-10-08T05:46:32.660Z,12.17
2022-10-08T05:49:01.510Z,12.19
2022-10-08T05:51:29.235Z,12.18
2022-10-08T05:53:56.658Z,12.19
2022-10-08T05:56:24.609Z,12.12
2022-10-08T05:58:52.778Z,12.12
2022-10-08T06:01:28.466Z,12.06
2022-10-08T06:03:58.006Z,12.06
2022-10-08T06:06:25.694Z,11.99
2022-10-08T06:09:01.237Z,11.96
2022-10-08T06:11:30.028Z,11.98
2022-10-08T06:13:58.631Z,11.95
2022-10-08T06:16:26.371Z,11.95
2022-10-08T06:18:53.805Z,11.98
2022-10-08T06:21:23.417Z,11.97
2022-10-08T06:23:52.240Z,11.95
2022-10-08T06:26:21.943Z,11.94
2022-10-08T06:28:49.621Z,11.98
2022-10-08T06:31:17.088Z,11.98
2022-10-08T06:33:43.697Z,12.00
2022-10-08T06:36:15.569Z,11.98
2022-10-08T06:38:43.014Z,11.99
2022-10-08T06:41:09.956Z,11.96
2022-10-08T06:43:36.745Z,11.95
2022-10-08T06:46:06.864Z,11.95
2022-10-08T06:48:34.091Z,12.00
2022-10-08T06:51:06.236Z,12.07
2022-10-08T06:53:33.811Z,12.06
2022-10-08T06:56:03.338Z,12.10
2022-10-08T06:58:30.222Z,12.09
2022-10-08T07:01:08.791Z,12.09
2022-10-08T07:03:37.910Z,12.13
2022-10-08T07:06:10.377Z,12.14
2022-10-08T07:08:37.020Z,12.21
2022-10-08T07:11:09.465Z,12.26
2022-10-08T07:13:37.181Z,12.28
2022-10-08T07:16:09.627Z,12.31
2022-10-08T07:18:37.801Z,12.29
2022-10-08T07:21:06.188Z,12.42
2022-10-08T07:23:32.847Z,12.50
2022-10-08T07:26:03.905Z,12.58
2022-10-08T07:28:33.676Z,12.69
2022-10-08T07:31:08.722Z,12.84
2022-10-08T07:33:35.318Z,12.79
2022-10-08T07:36:16.991Z,12.88
2022-10-08T07:38:44.125Z,12.93
2022-10-08T07:41:12.238Z,12.92
2022-10-08T07:43:41.675Z,13.08
2022-10-08T07:46:10.383Z,13.17
2022-10-08T07:48:37.975Z,13.34
2022-10-08T07:51:09.703Z,13.49
2022-10-08T07:53:36.946Z,13.61
2022-10-08T07:56:04.674Z,13.67
2022-10-08T07:58:31.233Z,13.59
2022-10-08T08:00:59.193Z,13.41
2022-10-08T08:03:26.103Z,13.47
2022-10-08T08:05:54.017Z,13.52
2022-10-08T08:08:24.950Z,13.81
2022-10-08T08:10:59.361Z,13.76
2022-10-08T08:13:26.401Z,14.00
2022-10-08T08:15:58.235Z,14.02
2022-10-08T08:18:25.212Z,14.18
2022-10-08T08:20:59.280Z,14.14
2022-10-08T08:23:46.717Z,14.10
2022-10-08T08:26:20.533Z,14.11
2022-10-08T08:28:55.091Z,14.31
2022-10-08T08:31:24.544Z,14.16
2022-10-08T08:33:54.686Z,14.48
2022-10-08T08:36:26.132Z,14.42
2022-10-08T08:38:53.179Z,14.50
2022-10-08T08:41:25.676Z,14.32
2022-10-08T08:43:59.898Z,14.71
2022-10-08T08:46:30.071Z,15.04
2022-10-08T08:49:01.124Z,15.47
2022-10-08T08:51:27.544Z,15.66
2022-10-08T08:53:54.238Z,15.58
2022-10-08T08:56:22.317Z,15.90
2022-10-08T08:58:58.396Z,15.99
2022-10-08T09:01:35.669Z,15.98
2022-10-08T09:04:13.691Z,16.34
2022-10-08T09:06:40.934Z,16.66
2022-10-08T09:09:19.886Z,16.65
2022-10-08T09:11:46.833Z,16.75
2022-10-08T09:14:44.856Z,16.62
2022-10-08T09:17:18.874Z,16.89
2022-10-08T09:19:48.599Z,17.10
2022-10-08T09:22:26.939Z,17.51
2022-10-08T09:24:59.244Z,17.01
2022-10-08T09:27:26.121Z,16.71
2022-10-08T09:29:52.791Z,16.68
2022-10-08T09:32:21.527Z,17.07
2022-10-08T09:34:48.872Z,17.05
2022-10-08T09:37:22.935Z,18.06
2022-10-08T09:40:18.786Z,17.63
2022-10-08T09:42:46.031Z,17.86
2022-10-08T09:45:35.340Z,17.90
2022-10-08T09:48:22.176Z,17.98
2022-10-08T09:50:53.771Z,17.64
2022-10-08T09:53:22.784Z,17.61
2022-10-08T09:55:54.215Z,17.11
2022-10-08T09:58:21.015Z,17.36
2022-10-08T10:00:57.740Z,17.36
2022-10-08T10:03:26.903Z,17.05
2022-10-08T10:05:55.887Z,17.26
2022-10-08T10:08:48.431Z,17.14
2022-10-08T10:11:24.370Z,17.16
2022-10-08T10:13:51.713Z,17.35
2022-10-08T10:16:25.124Z,17.58
2022-10-08T10:19:00.621Z,17.57
2022-10-08T10:21:36.935Z,17.41
2022-10-08T10:24:28.382Z,17.02
2022-10-08T10:27:01.034Z,16.93
2022-10-08T10:29:40.373Z,17.03
2022-10-08T10:32:15.702Z,16.90
2022-10-08T10:34:48.499Z,17.26
2022-10-08T10:37:25.175Z,17.07
2022-10-08T10:40:06.487Z,17.15
2022-10-08T10:42:43.812Z,17.25
2022-10-08T10:45:26.411Z,17.43
2022-10-08T10:47:54.538Z,17.27
2022-10-08T10:50:44.128Z,17.31
2022-10-08T10:53:10.631Z,17.36
2022-10-08T10:55:53.885Z,17.20
2022-10-08T10:58:38.021Z,17.21
2022-10-08T11:01:31.195Z,17.23
2022-10-08T11:04:03.957Z,17.14
2022-10-08T11:06:53.110Z,17.24
2022-10-08T11:09:33.349Z,16.77
2022-10-08T11:12:21.612Z,16.85
2022-10-08T11:15:02.129Z,16.64
2022-10-08T11:17:47.669Z,16.64
2022-10-08T11:20:30.992Z,16.73
2022-10-08T11:23:11.912Z,16.74
2022-10-08T11:29:31.225Z,16.57
2022-10-08T11:31:58.128Z,16.57
2022-10-08T11:35:00.970Z,16.69
2022-10-08T11:37:37.781Z,16.73
2022-10-08T11:40:35.316Z,16.72
2022-10-08T11:43:39.557Z,16.93
2022-10-08T11:46:22.412Z,16.99
2022-10-08T11:48:50.650Z,16.95
2022-10-08T11:51:19.744Z,16.97
2022-10-08T11:54:26.484Z,16.93
2022-10-08T11:57:18.492Z,16.79
2022-10-08T11:59:57.048Z,16.77
2022-10-08T12:02:37.802Z,16.86
2022-10-08T12:05:22.528Z,16.95
2022-10-08T12:07:51.683Z,16.71
2022-10-08T12:10:18.110Z,16.85
2022-10-08T12:12:51.243Z,16.92
2022-10-08T12:15:24.077Z,16.86
2022-10-08T12:17:55.355Z,16.98
2022-10-08T12:20:24.522Z,17.03
2022-10-08T12:23:03.662Z,17.06
2022-10-08T12:25:39.297Z,16.96
2022-10-08T12:28:21.149Z,16.93
2022-10-08T12:30:50.924Z,17.01
2022-10-08T12:33:18.555Z,17.14
2022-10-08T12:36:06.599Z,17.36
2022-10-08T12:38:42.173Z,17.46
2022-10-08T12:41:25.432Z,17.63
2022-10-08T12:44:07.255Z,17.59
2022-10-08T12:46:51.681Z,17.68
2022-10-08T12:49:27.817Z,18.03
2022-10-08T12:52:13.439Z,17.90
2022-10-08T12:55:02.093Z,17.90
2022-10-08T12:57:38.876Z,17.58
2022-10-08T13:00:23.553Z,17.85
2022-10-08T13:03:05.077Z,17.59
2022-10-08T13:05:34.836Z,17.80
2022-10-08T13:08:25.723Z,17.65
2022-10-08T13:10:52.229Z,18.14
2022-10-08T13:13:34.639Z,18.23
2022-10-08T13:16:02.702Z,17.64
2022-10-08T13:18:30.791Z,17.92
2022-10-08T13:21:02.531Z,18.04
2022-10-08T13:23:40.875Z,17.77
2022-10-08T13:26:49.571Z,17.74
2022-10-08T13:29:30.974Z,18.05
2022-10-08T13:32:14.163Z,17.99
2022-10-08T13:34:41.266Z,18.41
2022-10-08T13:37:13.424Z,18.38
2022-10-08T13:39:56.750Z,17.67
2022-10-08T13:42:25.818Z,17.87
2022-10-08T13:44:52.673Z,17.37
2022-10-08T13:47:22.021Z,17.90
2022-10-08T13:49:49.622Z,18.25
2022-10-08T13:52:23.281Z,18.81
2022-10-08T13:54:59.314Z,20.09
2022-10-08T13:57:25.967Z,19.83
2022-10-08T13:59:52.485Z,19.39
2022-10-08T14:02:19.142Z,19.83
2022-10-08T14:04:46.466Z,20.70
2022-10-08T14:07:19.982Z,20.40
2022-10-08T14:09:46.374Z,20.94
2022-10-08T14:12:13.053Z,21.23
2022-10-08T14:14:39.439Z,20.36
2022-10-08T14:17:05.837Z,20.34
2022-10-08T14:19:32.772Z,20.01
2022-10-08T14:21:59.407Z,20.91
2022-10-08T14:24:26.082Z,20.79
2022-10-08T14:26:52.963Z,20.04
2022-10-08T14:29:19.361Z,20.90
2022-10-08T14:31:46.164Z,21.53
2022-10-08T14:34:12.627Z,22.04
2022-10-08T14:36:41.899Z,22.55
2022-10-08T14:39:09.834Z,22.52
2022-10-08T14:41:37.279Z,22.10
2022-10-08T14:44:03.881Z,22.72
2022-10-08T14:46:30.657Z,23.08
2022-10-08T14:48:57.473Z,23.31
2022-10-08T14:51:24.107Z,22.97
2022-10-08T14:53:52.043Z,22.96
2022-10-08T14:56:18.490Z,22.74
2022-10-08T14:58:45.225Z,22.45
2022-10-08T15:01:11.752Z,22.79
2022-10-08T15:03:38.550Z,22.28
2022-10-08T15:06:05.340Z,21.82
2022-10-08T15:08:31.791Z,21.49
2022-10-08T15:11:01.799Z,21.18
2022-10-08T15:13:30.747Z,20.91
2022-10-08T15:15:57.630Z,20.90
2022-10-08T15:18:24.484Z,20.73
2022-10-08T15:20:59.828Z,20.52
2022-10-08T15:23:27.331Z,20.50
2022-10-08T15:26:02.216Z,19.85
2022-10-08T15:28:29.519Z,19.62
2022-10-08T15:31:03.801Z,19.66
2022-10-08T15:33:30.603Z,19.59
2022-10-08T15:35:58.620Z,19.49
2022-10-08T15:38:25.331Z,19.01
2022-10-08T15:40:51.782Z,19.15
2022-10-08T15:43:18.456Z,19.06
2022-10-08T15:45:45.143Z,19.00
2022-10-08T15:48:12.901Z,19.03
2022-10-08T15:50:39.699Z,18.97
2022-10-08T15:53:07.243Z,18.77
2022-10-08T15:55:34.218Z,18.73
2022-10-08T15:58:00.811Z,18.56
2022-10-08T16:00:27.814Z,18.48
2022-10-08T16:02:55.215Z,18.40
2022-10-08T16:05:22.449Z,18.35
2022-10-08T16:07:48.825Z,18.32
2022-10-08T16:10:15.846Z,18.13
2022-10-08T16:12:42.424Z,18.06
2022-10-08T16:15:09.800Z,18.02
2022-10-08T16:17:36.659Z,17.99
2022-10-08T16:20:03.225Z,18.08
2022-10-08T16:22:30.151Z,17.83
2022-10-08T16:24:56.725Z,17.66
2022-10-08T16:27:23.223Z,17.60
2022-10-08T16:29:49.650Z,17.52
2022-10-08T16:32:16.099Z,17.41
2022-10-08T16:34:45.117Z,17.43
2022-10-08T16:37:12.454Z,17.36
2022-10-08T16:39:39.078Z,17.20
2022-10-08T16:42:05.752Z,17.19
2022-10-08T16:44:32.151Z,17.08
2022-10-08T16:46:59.013Z,16.85
2022-10-08T16:49:28.426Z,16.76
2022-10-08T16:51:57.855Z,16.69
2022-10-08T16:54:24.632Z,16.52
2022-10-08T16:56:51.580Z,16.26
2022-10-08T16:59:20.739Z,16.18
2022-10-08T17:01:49.862Z,15.96
2022-10-08T17:04:18.050Z,15.83
2022-10-08T17:06:44.807Z,15.61
2022-10-08T17:09:11.705Z,15.64
2022-10-08T17:11:38.634Z,15.56
2022-10-08T17:14:07.543Z,15.62
2022-10-08T17:16:35.545Z,15.36
2022-10-08T17:19:02.675Z,15.28
2022-10-08T17:21:30.349Z,15.17
2022-10-08T17:23:58.593Z,15.16
2022-10-08T17:26:27.590Z,15.06
2022-10-08T17:28:55.173Z,14.92
2022-10-08T17:31:24.619Z,14.95
2022-10-08T17:33:51.100Z,14.80
2022-10-08T17:36:20.418Z,14.64
2022-10-08T17:38:49.414Z,14.60
2022-10-08T17:41:22.077Z,14.47
2022-10-08T17:43:49.687Z,14.38
2022-10-08T17:46:22.442Z,14.46
2022-10-08T17:48:49.281Z,14.35
2022-10-08T17:51:18.895Z,14.24
2022-10-08T17:53:52.187Z,14.22
2022-10-08T17:56:19.573Z,13.92
2022-10-08T17:58:46.496Z,13.97
2022-10-08T18:01:18.881Z,13.97
2022-10-08T18:03:54.633Z,13.84
2022-10-08T18:06:21.747Z,13.81
2022-10-08T18:08:48.797Z,13.63
2022-10-08T18:11:17.097Z,13.46
2022-10-08T18:13:43.532Z,13.36
2022-10-08T18:16:15.899Z,13.24
2022-10-08T18:18:44.248Z,13.13
2022-10-08T18:21:12.985Z,12.97
2022-10-08T18:23:43.466Z,13.01
2022-10-08T18:26:16.558Z,13.09
2022-10-08T18:28:44.433Z,12.95
2022-10-08T18:31:11.916Z,12.84
2022-10-08T18:33:40.451Z,12.77
2022-10-08T18:36:15.621Z,12.63
2022-10-08T18:38:44.011Z,12.72
2022-10-08T18:41:11.748Z,12.65
2022-10-08T18:43:38.279Z,12.39
2022-10-08T18:46:05.440Z,12.47
2022-10-08T18:48:32.908Z,12.41
2022-10-08T18:51:07.877Z,12.45
2022-10-08T18:53:36.336Z,12.44
2022-10-08T18:56:04.706Z,11.98
2022-10-08T18:58:31.602Z,12.07
2022-10-08T19:00:58.513Z,12.11
2022-10-08T19:03:25.820Z,12.08
2022-10-08T19:05:53.811Z,12.04
2022-10-08T19:08:20.282Z,12.02
2022-10-08T19:10:46.744Z,11.87
2022-10-08T19:13:13.843Z,11.75
2022-10-08T19:15:40.898Z,11.79
2022-10-08T19:18:08.355Z,11.73
2022-10-08T19:20:35.535Z,11.80
2022-10-08T19:23:03.349Z,11.61
2022-10-08T19:25:29.953Z,11.56
2022-10-08T19:27:56.736Z,11.65
2022-10-08T19:30:26.610Z,11.55
2022-10-08T19:32:55.387Z,11.45
2022-10-08T19:35:22.025Z,11.29
2022-10-08T19:37:48.491Z,11.54
2022-10-08T19:40:15.316Z,11.61
2022-10-08T19:42:41.751Z,11.64
2022-10-08T19:45:08.723Z,11.55
2022-10-08T19:47:36.096Z,11.64
2022-10-08T19:50:03.024Z,11.69
2022-10-08T19:52:29.841Z,11.57
2022-10-08T19:54:56.855Z,11.64
2022-10-08T19:57:23.252Z,11.61
2022-10-08T19:59:49.915Z,11.24
2022-10-08T20:02:17.117Z,11.41
2022-10-08T20:04:44.808Z,11.37
2022-10-08T20:07:11.660Z,11.26
2022-10-08T20:09:38.551Z,11.17
2022-10-08T20:12:05.013Z,11.21
2022-10-08T20:14:32.013Z,11.16
2022-10-08T20:16:58.536Z,11.17
2022-10-08T20:19:25.154Z,11.21
2022-10-08T20:21:55.192Z,11.17
2022-10-08T20:24:22.282Z,11.08
2022-10-08T20:26:49.285Z,11.02
2022-10-08T20:29:18.343Z,11.08
2022-10-08T20:31:50.653Z,10.96
2022-10-08T20:34:19.800Z,10.98
2022-10-08T20:36:47.576Z,11.12
2022-10-08T20:39:15.990Z,11.11
2022-10-08T20:41:42.971Z,11.09
2022-10-08T20:44:09.450Z,11.06
2022-10-08T20:46:37.911Z,10.88
2022-10-08T20:49:05.448Z,10.77
2022-10-08T20:51:33.372Z,10.60
2022-10-08T20:54:05.951Z,10.76
2022-10-08T20:56:39.441Z,10.73
2022-10-08T20:59:07.717Z,10.76
2022-10-08T21:01:37.530Z,10.73
2022-10-08T21:04:05.470Z,10.60
2022-10-08T21:06:37.565Z,10.68
2022-10-08T21:09:05.414Z,10.72
2022-10-08T21:11:32.313Z,10.70
2022-10-08T21:14:01.424Z,10.65
2022-10-08T21:16:31.924Z,10.35
2022-10-08T21:19:02.120Z,10.37
2022-10-08T21:21:30.981Z,10.40
2022-10-08T21:23:58.535Z,10.43
2022-10-08T21:26:30.332Z,10.36
2022-10-08T21:29:00.069Z,10.33
2022-10-08T21:31:30.237Z,10.35
2022-10-08T21:33:57.833Z,10.29
2022-10-08T21:36:27.452Z,10.37
2022-10-08T21:38:54.399Z,10.33
2022-10-08T21:41:23.375Z,10.26
2022-10-08T21:43:56.879Z,10.18
2022-10-08T21:46:25.857Z,10.18
2022-10-08T21:48:54.164Z,10.22
2022-10-08T21:51:21.198Z,10.19
2022-10-08T21:53:52.851Z,10.19
2022-10-08T21:56:25.179Z,10.02
2022-10-08T21:58:54.573Z,10.01
2022-10-08T22:01:42.375Z,10.02
2022-10-08T22:04:11.537Z,9.89
2022-10-08T22:06:41.981Z,9.88
2022-10-08T22:09:12.368Z,9.89
2022-10-08T22:11:39.762Z,9.70
2022-10-08T22:14:07.623Z,9.67
2022-10-08T22:16:34.321Z,9.64
2022-10-08T22:19:00.813Z,9.65
2022-10-08T22:21:27.360Z,9.63
2022-10-08T22:23:54.286Z,9.51
2022-10-08T22:26:23.764Z,9.54
2022-10-08T22:28:50.718Z,9.51
2022-10-08T22:31:19.686Z,9.52
2022-10-08T22:33:47.222Z,9.48
2022-10-08T22:36:29.315Z,9.45
2022-10-08T22:38:57.364Z,9.37
2022-10-08T22:41:26.146Z,9.40
2022-10-08T22:43:53.054Z,9.38
2022-10-08T22:46:21.864Z,9.26
2022-10-08T22:48:49.014Z,9.28
2022-10-08T22:51:18.713Z,9.36
2022-10-08T22:53:45.653Z,9.22
2022-10-08T22:56:16.623Z,9.02
2022-10-08T22:58:43.335Z,8.97
2022-10-08T23:01:12.918Z,9.08
2022-10-08T23:03:40.240Z,9.03
2022-10-08T23:06:08.187Z,8.89
2022-10-08T23:08:36.551Z,9.07
2022-10-08T23:11:05.399Z,8.98
2022-10-08T23:13:32.600Z,9.01
2022-10-08T23:16:10.152Z,9.08
2022-10-08T23:18:39.024Z,9.07
2022-10-08T23:21:16.496Z,9.04
2022-10-08T23:23:44.920Z,8.82
2022-10-08T23:26:12.778Z,8.85
2022-10-08T23:28:39.563Z,8.82
2022-10-08T23:31:14.720Z,8.78
2022-10-08T23:33:44.520Z,8.78
2022-10-08T23:36:13.917Z,8.81
2022-10-08T23:38:40.781Z,8.70
2022-10-08T23:41:09.205Z,8.70
2022-10-08T23:43:38.801Z,8.67
2022-10-08T23:46:06.824Z,8.62
2022-10-08T23:48:33.622Z,8.69
2022-10-08T23:51:00.121Z,8.74
2022-10-08T23:53:27.454Z,8.80
2022-10-08T23:55:54.103Z,8.69
2022-10-08T23:58:21.584Z,8.66
